Alamo, IN

7:49 PM EDT on September 02, 2014 (GMT -0400)
Wabash College Campus | Change Station
CLOSE
Current Station
Personal Weather Station
Location: Crawfordsville, IN
Elevation: 778 ft
Nearby Weather Stations

Elev 778 ft 40.04 °N, 86.91 °W | Updated 13 seconds ago

Partly Cloudy
Partly Cloudy
77.0 °F
Feels Like 79 °F
N
2.2
Wind Variable Wind from SW
Gusts 3.8 mph

Today
High -- | Low -- °F
--% Chance of Precip.
Yesterday
High -- | Low -- °F
Precip. -- in
7:16 AM 8:17 PM
First Quarter, 56% visible
Pressure 29.89 in
Visibility 10.0 miles
Clouds Clear
Heat Index 79 °F
Dew Point 69 °F
Humidity 77%
Rainfall 0.00 in
Snow Depth Not available.
UV 1 out of 12
Pollen 4.10 out of 12
Air Quality Not available.
Flu Activity Not available.
METAR KLAF 022254Z 00000KT 10SM CLR 25/21 A2990 RMK AO2 SLP122 T02500211 $

More Conditions Fewer Conditions

Pressure 29.89 in
Visibility 10.0 miles
Clouds Clear
Heat Index 79 °F
Dew Point 69 °F
Humidity 77%
Rainfall 0.00 in
Snow Depth Not available.
UV 1 out of 12
Pollen 4.10 out of 12
Air Quality Not available.
Flu Activity Not available.
METAR KLAF 022254Z 00000KT 10SM CLR 25/21 A2990 RMK AO2 SLP122 T02500211 $

More Conditions Fewer Conditions

10-Day Weather Forecast

Almanac

Astronomy

Sep. 02, 2014 Rise Set
Actual Time 7:16 AM EDT 8:17 PM EDT
Civil Twilight 6:49 AM EDT 8:45 PM EDT
Nautical Twilight 6:16 AM EDT 9:18 PM EDT
Astronomical Twilight 5:41 AM EDT 9:52 PM EDT
Moon 3:00 PM EDT 12:20 AM EDT
Length of Visible Light 13h 56m
Length of Day
13h 01m
Tomorrow will be 2m 33s shorter.
First Quarter, 56% of the Moon is Illuminated
Today
First Quarter
Sep 8
Full
Sep 15
Last Quarter
Sep 24
New
Oct 1
First Quarter

Today's Extremes

State Highs State Lows

Community

WunderPhotos

Upload Photos

1,749,799 photos uploaded!

Nearby

Snow Depth

Station Depth Elevation
No new snow has been reported.

Earthquake Activity

City Distance Mag. Time & Date
No recent earthquake activity has been reported nearby.
Minimum magnitude displayed is 2.5.

Coastal Water Temperatures

Place Temperature
No Stations Reporting

Nearby Weather Stations